sensor_id;sensor_type;location;lat;lon;timestamp;pressure;altitude;pressure_sealevel;temperature;humidity
50652;BME280;66928;52.086;5.240;2023-05-11T05:49:28;101369.0;;;14.5;90.48
50652;BME280;66928;52.086;5.240;2023-05-11T05:51:05;101372.0;;;14.55;90.14
50652;BME280;66928;52.086;5.240;2023-05-11T05:52:41;101377.0;;;14.63;89.86
50652;BME280;66928;52.086;5.240;2023-05-11T05:55:53;101375.0;;;14.72;88.97
50652;BME280;66928;52.086;5.240;2023-05-11T05:57:29;101376.0;;;14.68;89.02
50652;BME280;66928;52.086;5.240;2023-05-11T05:59:05;101383.0;;;14.66;88.95
50652;BME280;66928;52.086;5.240;2023-05-11T06:02:18;101380.0;;;14.69;88.75
50652;BME280;66928;52.086;5.240;2023-05-11T06:03:54;101384.0;;;14.79;88.26
50652;BME280;66928;52.086;5.240;2023-05-11T06:05:30;101383.0;;;14.86;88.26
50652;BME280;66928;52.086;5.240;2023-05-11T06:07:06;101382.0;;;14.86;88.2
50652;BME280;66928;52.086;5.240;2023-05-11T06:10:18;101387.0;;;14.99;87.44
50652;BME280;66928;52.086;5.240;2023-05-11T06:11:55;101389.0;;;14.85;87.61
50652;BME280;66928;52.086;5.240;2023-05-11T06:13:31;101386.0;;;14.88;88.18
50652;BME280;66928;52.086;5.240;2023-05-11T06:16:44;101390.0;;;14.92;87.54
50652;BME280;66928;52.086;5.240;2023-05-11T06:18:20;101392.0;;;14.83;87.49
50652;BME280;66928;52.086;5.240;2023-05-11T06:19:56;101390.0;;;14.87;87.36
50652;BME280;66928;52.086;5.240;2023-05-11T06:23:09;101393.0;;;14.85;87.64
50652;BME280;66928;52.086;5.240;2023-05-11T06:24:45;101396.0;;;14.85;87.48
50652;BME280;66928;52.086;5.240;2023-05-11T06:26:21;101399.0;;;14.91;87.71
50652;BME280;66928;52.086;5.240;2023-05-11T06:27:58;101400.0;;;14.99;87.76
50652;BME280;66928;52.086;5.240;2023-05-11T06:31:10;101400.0;;;15.14;87.5
50652;BME280;66928;52.086;5.240;2023-05-11T06:32:47;101397.0;;;15.31;86.61
50652;BME280;66928;52.086;5.240;2023-05-11T06:34:23;101400.0;;;15.41;85.85
50652;BME280;66928;52.086;5.240;2023-05-11T06:37:39;101397.0;;;15.38;85.61
50652;BME280;66928;52.086;5.240;2023-05-11T06:39:16;101401.0;;;15.36;85.13
50652;BME280;66928;52.086;5.240;2023-05-11T06:40:52;101396.0;;;15.51;84.73
50652;BME280;66928;52.086;5.240;2023-05-11T06:44:04;101400.0;;;15.58;83.85
50652;BME280;66928;52.086;5.240;2023-05-11T06:45:40;101401.0;;;15.59;83.82
50652;BME280;66928;52.086;5.240;2023-05-11T06:47:18;101406.0;;;15.57;83.26
50652;BME280;66928;52.086;5.240;2023-05-11T06:48:54;101407.0;;;15.64;83.04
50652;BME280;66928;52.086;5.240;2023-05-11T06:52:06;101409.0;;;15.77;82.17
50652;BME280;66928;52.086;5.240;2023-05-11T06:53:43;101406.0;;;15.64;82.81
50652;BME280;66928;52.086;5.240;2023-05-11T06:55:20;101409.0;;;15.81;82.8
50652;BME280;66928;52.086;5.240;2023-05-11T06:58:32;101410.0;;;16.04;82.44
50652;BME280;66928;52.086;5.240;2023-05-11T07:00:09;101406.0;;;16.09;81.78
50652;BME280;66928;52.086;5.240;2023-05-11T07:01:45;101411.0;;;16.05;81.3
50652;BME280;66928;52.086;5.240;2023-05-11T07:04:58;101414.0;;;16.31;80.64
50652;BME280;66928;52.086;5.240;2023-05-11T07:06:34;101417.0;;;16.36;80.06
50652;BME280;66928;52.086;5.240;2023-05-11T07:08:10;101414.0;;;16.28;78.08
50652;BME280;66928;52.086;5.240;2023-05-11T07:11:23;101417.0;;;16.37;76.91
50652;BME280;66928;52.086;5.240;2023-05-11T07:12:59;101412.0;;;16.29;77.52
50652;BME280;66928;52.086;5.240;2023-05-11T07:14:35;101411.0;;;16.4;77.87
50652;BME280;66928;52.086;5.240;2023-05-11T07:16:11;101413.0;;;16.55;76.95
50652;BME280;66928;52.086;5.240;2023-05-11T07:19:24;101409.0;;;16.77;75.12
50652;BME280;66928;52.086;5.240;2023-05-11T07:21:00;101412.0;;;16.8;74.14
50652;BME280;66928;52.086;5.240;2023-05-11T07:22:36;101413.0;;;16.75;74.16
50652;BME280;66928;52.086;5.240;2023-05-11T07:25:49;101410.0;;;16.87;73.69
50652;BME280;66928;52.086;5.240;2023-05-11T07:27:25;101414.0;;;17.04;72.63
50652;BME280;66928;52.086;5.240;2023-05-11T07:29:02;101408.0;;;16.87;73.36
50652;BME280;66928;52.086;5.240;2023-05-11T07:32:14;101411.0;;;16.84;74.08
50652;BME280;66928;52.086;5.240;2023-05-11T07:33:50;101414.0;;;16.9;74.72
50652;BME280;66928;52.086;5.240;2023-05-11T07:35:26;101413.0;;;16.89;74.52
50652;BME280;66928;52.086;5.240;2023-05-11T07:37:02;101417.0;;;17.03;72.99
50652;BME280;66928;52.086;5.240;2023-05-11T07:40:15;101419.0;;;17.11;72.99
50652;BME280;66928;52.086;5.240;2023-05-11T07:41:51;101419.0;;;17.23;73.08
50652;BME280;66928;52.086;5.240;2023-05-11T07:43:27;101416.0;;;17.11;72.37
50652;BME280;66928;52.086;5.240;2023-05-11T07:46:40;101418.0;;;17.16;72.66
50652;BME280;66928;52.086;5.240;2023-05-11T07:48:16;101417.0;;;17.21;71.99
50652;BME280;66928;52.086;5.240;2023-05-11T07:49:53;101422.0;;;17.32;70.64
50652;BME280;66928;52.086;5.240;2023-05-11T07:53:05;101420.0;;;17.12;71.0
50652;BME280;66928;52.086;5.240;2023-05-11T07:54:41;101419.0;;;17.12;71.2
50652;BME280;66928;52.086;5.240;2023-05-11T07:56:17;101416.0;;;17.09;71.45
50652;BME280;66928;52.086;5.240;2023-05-11T07:57:53;101415.0;;;17.14;71.78
50652;BME280;66928;52.086;5.240;2023-05-11T08:01:06;101421.0;;;17.34;71.92
50652;BME280;66928;52.086;5.240;2023-05-11T08:02:41;101419.0;;;17.34;71.55
50652;BME280;66928;52.086;5.240;2023-05-11T08:04:17;101419.0;;;17.31;72.08
50652;BME280;66928;52.086;5.240;2023-05-11T08:07:30;101420.0;;;17.29;71.03
50652;BME280;66928;52.086;5.240;2023-05-11T08:09:06;101420.0;;;17.36;70.97
50652;BME280;66928;52.086;5.240;2023-05-11T08:10:42;101423.0;;;17.41;70.91
50652;BME280;66928;52.086;5.240;2023-05-11T08:13:54;101423.0;;;17.45;69.94
50652;BME280;66928;52.086;5.240;2023-05-11T08:15:30;101426.0;;;17.45;69.61
50652;BME280;66928;52.086;5.240;2023-05-11T08:17:06;101427.0;;;17.5;69.69
50652;BME280;66928;52.086;5.240;2023-05-11T08:20:19;101421.0;;;17.59;69.52
50652;BME280;66928;52.086;5.240;2023-05-11T08:21:55;101423.0;;;17.66;68.97
50652;BME280;66928;52.086;5.240;2023-05-11T08:23:31;101424.0;;;17.81;69.47
50652;BME280;66928;52.086;5.240;2023-05-11T08:25:08;101419.0;;;17.77;70.77
50652;BME280;66928;52.086;5.240;2023-05-11T08:28:20;101425.0;;;17.77;70.39
50652;BME280;66928;52.086;5.240;2023-05-11T08:29:57;101422.0;;;17.86;69.58
50652;BME280;66928;52.086;5.240;2023-05-11T08:31:33;101421.0;;;17.86;69.23
50652;BME280;66928;52.086;5.240;2023-05-11T08:34:45;101421.0;;;17.84;68.86
50652;BME280;66928;52.086;5.240;2023-05-11T08:36:21;101414.0;;;17.93;69.34
50652;BME280;66928;52.086;5.240;2023-05-11T08:37:57;101415.0;;;18.04;67.5
50652;BME280;66928;52.086;5.240;2023-05-11T08:41:10;101409.0;;;18.04;67.66
50652;BME280;66928;52.086;5.240;2023-05-11T08:42:48;101410.0;;;18.02;68.02
50652;BME280;66928;52.086;5.240;2023-05-11T08:44:30;101413.0;;;18.07;66.8
50652;BME280;66928;52.086;5.240;2023-05-11T08:46:10;101414.0;;;18.11;66.69
50652;BME280;66928;52.086;5.240;2023-05-11T08:49:24;101415.0;;;18.05;66.14
50652;BME280;66928;52.086;5.240;2023-05-11T08:51:02;101415.0;;;17.78;67.16
50652;BME280;66928;52.086;5.240;2023-05-11T08:52:39;101412.0;;;18.07;66.91
50652;BME280;66928;52.086;5.240;2023-05-11T08:55:53;101413.0;;;18.16;67.09
50652;BME280;66928;52.086;5.240;2023-05-11T08:57:30;101412.0;;;18.14;67.22
50652;BME280;66928;52.086;5.240;2023-05-11T08:59:08;101414.0;;;18.11;66.42
50652;BME280;66928;52.086;5.240;2023-05-11T09:00:48;101416.0;;;18.18;65.3
50652;BME280;66928;52.086;5.240;2023-05-11T09:04:00;101414.0;;;18.22;66.3
50652;BME280;66928;52.086;5.240;2023-05-11T09:05:38;101414.0;;;18.28;66.5
50652;BME280;66928;52.086;5.240;2023-05-11T09:07:15;101413.0;;;18.36;65.5
50652;BME280;66928;52.086;5.240;2023-05-11T09:10:29;101411.0;;;18.45;65.95
50652;BME280;66928;52.086;5.240;2023-05-11T09:12:06;101408.0;;;18.52;64.94
50652;BME280;66928;52.086;5.240;2023-05-11T09:13:42;101409.0;;;18.53;64.66
50652;BME280;66928;52.086;5.240;2023-05-11T09:15:19;101414.0;;;18.61;64.02
50652;BME280;66928;52.086;5.240;2023-05-11T09:18:32;101410.0;;;18.73;63.2
50652;BME280;66928;52.086;5.240;2023-05-11T09:20:09;101412.0;;;18.77;62.08
50652;BME280;66928;52.086;5.240;2023-05-11T09:21:46;101413.0;;;18.73;62.16
50652;BME280;66928;52.086;5.240;2023-05-11T09:25:01;101413.0;;;18.84;63.25
50652;BME280;66928;52.086;5.240;2023-05-11T09:26:39;101411.0;;;18.82;63.17
50652;BME280;66928;52.086;5.240;2023-05-11T09:28:14;101415.0;;;18.75;62.58
50652;BME280;66928;52.086;5.240;2023-05-11T09:31:36;101413.0;;;18.93;62.93
50652;BME280;66928;52.086;5.240;2023-05-11T09:33:21;101417.0;;;18.93;62.59
50652;BME280;66928;52.086;5.240;2023-05-11T09:34:59;101416.0;;;18.66;63.5
50652;BME280;66928;52.086;5.240;2023-05-11T09:36:54;101410.0;;;18.86;63.04
50652;BME280;66928;52.086;5.240;2023-05-11T09:38:30;101412.0;;;18.88;63.14
50652;BME280;66928;52.086;5.240;2023-05-11T09:41:46;101415.0;;;18.77;63.28
50652;BME280;66928;52.086;5.240;2023-05-11T09:43:23;101412.0;;;18.66;62.86
50652;BME280;66928;52.086;5.240;2023-05-11T09:45:01;101412.0;;;18.52;62.36
50652;BME280;66928;52.086;5.240;2023-05-11T09:48:25;101413.0;;;18.7;61.66
50652;BME280;66928;52.086;5.240;2023-05-11T09:50:14;101412.0;;;18.61;62.11
50652;BME280;66928;52.086;5.240;2023-05-11T09:51:59;101415.0;;;18.7;61.7
50652;BME280;66928;52.086;5.240;2023-05-11T09:53:38;101414.0;;;18.53;62.46
50652;BME280;66928;52.086;5.240;2023-05-11T09:55:15;101415.0;;;18.77;61.93
50652;BME280;66928;52.086;5.240;2023-05-11T09:58:48;101416.0;;;18.8;62.47
50652;BME280;66928;52.086;5.240;2023-05-11T10:00:24;101417.0;;;18.78;62.72
50652;BME280;66928;52.086;5.240;2023-05-11T10:02:15;101415.0;;;18.86;62.42
50652;BME280;66928;52.086;5.240;2023-05-11T10:03:54;101415.0;;;18.88;62.1
50652;BME280;66928;52.086;5.240;2023-05-11T10:05:31;101412.0;;;18.88;61.11
50652;BME280;66928;52.086;5.240;2023-05-11T10:09:07;101412.0;;;18.75;61.24
50652;BME280;66928;52.086;5.240;2023-05-11T10:10:44;101408.0;;;18.78;61.21
50652;BME280;66928;52.086;5.240;2023-05-11T10:12:22;101413.0;;;18.86;61.05
50652;BME280;66928;52.086;5.240;2023-05-11T10:13:59;101412.0;;;18.88;61.48
50652;BME280;66928;52.086;5.240;2023-05-11T10:17:12;101410.0;;;18.84;60.97
50652;BME280;66928;52.086;5.240;2023-05-11T10:18:50;101409.0;;;19.0;60.16
50652;BME280;66928;52.086;5.240;2023-05-11T10:20:26;101411.0;;;19.02;60.48
50652;BME280;66928;52.086;5.240;2023-05-11T10:23:41;101410.0;;;19.0;59.45
50652;BME280;66928;52.086;5.240;2023-05-11T10:25:20;101412.0;;;19.11;58.56
50652;BME280;66928;52.086;5.240;2023-05-11T10:26:57;101409.0;;;19.13;57.95
50652;BME280;66928;52.086;5.240;2023-05-11T10:28:34;101405.0;;;19.06;58.36
50652;BME280;66928;52.086;5.240;2023-05-11T10:31:48;101410.0;;;19.06;58.94
50652;BME280;66928;52.086;5.240;2023-05-11T10:33:24;101407.0;;;19.02;60.04
50652;BME280;66928;52.086;5.240;2023-05-11T10:35:02;101408.0;;;19.07;60.2
50652;BME280;66928;52.086;5.240;2023-05-11T10:38:16;101407.0;;;19.0;61.36
50652;BME280;66928;52.086;5.240;2023-05-11T10:39:52;101405.0;;;19.05;61.02
50652;BME280;66928;52.086;5.240;2023-05-11T10:41:39;101405.0;;;19.09;60.55
50652;BME280;66928;52.086;5.240;2023-05-11T10:43:33;101401.0;;;19.02;60.06
50652;BME280;66928;52.086;5.240;2023-05-11T10:45:48;101397.0;;;19.06;60.56
50652;BME280;66928;52.086;5.240;2023-05-11T10:48:35;101396.0;;;19.09;60.13
50652;BME280;66928;52.086;5.240;2023-05-11T10:50:33;101402.0;;;19.16;60.16
50652;BME280;66928;52.086;5.240;2023-05-11T10:52:38;101405.0;;;19.36;59.04
50652;BME280;66928;52.086;5.240;2023-05-11T10:54:27;101405.0;;;19.54;57.83
50652;BME280;66928;52.086;5.240;2023-05-11T10:56:32;101402.0;;;19.46;57.01
50652;BME280;66928;52.086;5.240;2023-05-11T10:58:15;101400.0;;;19.55;57.09
50652;BME280;66928;52.086;5.240;2023-05-11T11:03:56;101399.0;;;19.63;57.57
50652;BME280;66928;52.086;5.240;2023-05-11T11:05:34;101399.0;;;19.59;58.12
50652;BME280;66928;52.086;5.240;2023-05-11T11:07:10;101400.0;;;19.68;57.85
50652;BME280;66928;52.086;5.240;2023-05-11T11:08:55;101405.0;;;19.79;57.45
50652;BME280;66928;52.086;5.240;2023-05-11T11:10:33;101405.0;;;19.79;56.67
50652;BME280;66928;52.086;5.240;2023-05-11T11:14:02;101405.0;;;19.59;56.75
50652;BME280;66928;52.086;5.240;2023-05-11T11:16:11;101405.0;;;19.68;57.89
50652;BME280;66928;52.086;5.240;2023-05-11T11:18:17;101409.0;;;19.63;58.35
50652;BME280;66928;52.086;5.240;2023-05-11T11:19:54;101416.0;;;19.45;57.78
50652;BME280;66928;52.086;5.240;2023-05-11T11:21:38;101427.0;;;19.11;58.15
50652;BME280;66928;52.086;5.240;2023-05-11T11:23:40;101428.0;;;18.47;64.35
50652;BME280;66928;52.086;5.240;2023-05-11T11:25:50;101433.0;;;17.87;66.97
50652;BME280;66928;52.086;5.240;2023-05-11T11:27:54;101431.0;;;17.47;68.87
50652;BME280;66928;52.086;5.240;2023-05-11T11:29:33;101424.0;;;17.12;71.3
50652;BME280;66928;52.086;5.240;2023-05-11T11:33:31;101420.0;;;16.75;71.08
50652;BME280;66928;52.086;5.240;2023-05-11T11:35:43;101417.0;;;16.45;71.69
50652;BME280;66928;52.086;5.240;2023-05-11T11:37:20;101428.0;;;16.22;73.69
50652;BME280;66928;52.086;5.240;2023-05-11T11:38:57;101430.0;;;16.11;75.83
50652;BME280;66928;52.086;5.240;2023-05-11T11:40:34;101434.0;;;16.04;77.08
50652;BME280;66928;52.086;5.240;2023-05-11T11:42:12;101427.0;;;15.73;76.58
50652;BME280;66928;52.086;5.240;2023-05-11T11:43:49;101430.0;;;15.65;79.03
50652;BME280;66928;52.086;5.240;2023-05-11T11:47:11;101430.0;;;15.63;79.11
50652;BME280;66928;52.086;5.240;2023-05-11T11:48:47;101421.0;;;15.46;82.4
50652;BME280;66928;52.086;5.240;2023-05-11T11:50:26;101438.0;;;15.36;81.92
50652;BME280;66928;52.086;5.240;2023-05-11T11:55:45;101420.0;;;15.13;81.95
50652;BME280;66928;52.086;5.240;2023-05-11T11:57:55;101425.0;;;15.03;86.34
50652;BME280;66928;52.086;5.240;2023-05-11T11:59:44;101420.0;;;15.08;87.75
50652;BME280;66928;52.086;5.240;2023-05-11T12:01:22;101423.0;;;14.98;89.11
50652;BME280;66928;52.086;5.240;2023-05-11T12:03:01;101417.0;;;14.93;88.74
50652;BME280;66928;52.086;5.240;2023-05-11T12:06:34;101424.0;;;14.88;90.06
50652;BME280;66928;52.086;5.240;2023-05-11T12:08:12;101424.0;;;14.97;90.64
50652;BME280;66928;52.086;5.240;2023-05-11T12:09:51;101424.0;;;15.03;91.06
50652;BME280;66928;52.086;5.240;2023-05-11T12:11:28;101431.0;;;15.03;90.57
50652;BME280;66928;52.086;5.240;2023-05-11T12:14:41;101431.0;;;15.07;90.16
50652;BME280;66928;52.086;5.240;2023-05-11T12:16:19;101437.0;;;15.0;87.38
50652;BME280;66928;52.086;5.240;2023-05-11T12:17:55;101433.0;;;14.96;86.25
50652;BME280;66928;52.086;5.240;2023-05-11T12:22:54;101432.0;;;14.96;86.52
50652;BME280;66928;52.086;5.240;2023-05-11T12:24:30;101435.0;;;15.04;86.54
50652;BME280;66928;52.086;5.240;2023-05-11T12:26:07;101435.0;;;15.08;85.55
50652;BME280;66928;52.086;5.240;2023-05-11T12:29:23;101440.0;;;15.27;85.09
50652;BME280;66928;52.086;5.240;2023-05-11T12:31:00;101445.0;;;15.44;82.93
50652;BME280;66928;52.086;5.240;2023-05-11T12:32:36;101447.0;;;15.46;81.61
50652;BME280;66928;52.086;5.240;2023-05-11T12:34:13;101444.0;;;15.54;81.12
50652;BME280;66928;52.086;5.240;2023-05-11T12:37:28;101447.0;;;15.52;81.08
50652;BME280;66928;52.086;5.240;2023-05-11T12:39:04;101445.0;;;15.76;80.0
50652;BME280;66928;52.086;5.240;2023-05-11T12:40:46;101451.0;;;15.79;79.86
50652;BME280;66928;52.086;5.240;2023-05-11T12:43:59;101444.0;;;15.96;78.5
50652;BME280;66928;52.086;5.240;2023-05-11T12:45:35;101442.0;;;16.09;78.13
50652;BME280;66928;52.086;5.240;2023-05-11T12:47:11;101442.0;;;16.21;77.91
50652;BME280;66928;52.086;5.240;2023-05-11T12:48:48;101439.0;;;16.12;78.8
50652;BME280;66928;52.086;5.240;2023-05-11T12:52:03;101443.0;;;16.16;78.19
50652;BME280;66928;52.086;5.240;2023-05-11T12:53:40;101445.0;;;16.25;78.31
50652;BME280;66928;52.086;5.240;2023-05-11T12:55:25;101447.0;;;16.34;78.74
50652;BME280;66928;52.086;5.240;2023-05-11T12:57:03;101447.0;;;16.34;79.53
50652;BME280;66928;52.086;5.240;2023-05-11T13:00:16;101448.0;;;16.27;80.48
50652;BME280;66928;52.086;5.240;2023-05-11T13:01:53;101446.0;;;16.2;81.38
50652;BME280;66928;52.086;5.240;2023-05-11T13:03:31;101447.0;;;16.5;80.64
50652;BME280;66928;52.086;5.240;2023-05-11T13:06:48;101450.0;;;16.47;81.06
50652;BME280;66928;52.086;5.240;2023-05-11T13:08:24;101448.0;;;16.54;80.05
50652;BME280;66928;52.086;5.240;2023-05-11T13:10:00;101450.0;;;16.62;80.37
50652;BME280;66928;52.086;5.240;2023-05-11T13:13:25;101453.0;;;16.7;80.36
50652;BME280;66928;52.086;5.240;2023-05-11T13:15:06;101446.0;;;16.59;80.94
50652;BME280;66928;52.086;5.240;2023-05-11T13:16:52;101449.0;;;16.8;79.74
50652;BME280;66928;52.086;5.240;2023-05-11T13:18:28;101444.0;;;16.84;78.83
50652;BME280;66928;52.086;5.240;2023-05-11T13:20:21;101442.0;;;16.86;78.66
50652;BME280;66928;52.086;5.240;2023-05-11T13:23:35;101438.0;;;16.91;77.89
50652;BME280;66928;52.086;5.240;2023-05-11T13:25:13;101437.0;;;16.84;78.02
50652;BME280;66928;52.086;5.240;2023-05-11T13:26:49;101437.0;;;16.77;78.91
50652;BME280;66928;52.086;5.240;2023-05-11T13:28:26;101437.0;;;16.75;79.72
50652;BME280;66928;52.086;5.240;2023-05-11T13:31:42;101436.0;;;16.8;78.72
50652;BME280;66928;52.086;5.240;2023-05-11T13:33:18;101435.0;;;16.65;78.94
50652;BME280;66928;52.086;5.240;2023-05-11T13:34:55;101435.0;;;16.61;77.61
50652;BME280;66928;52.086;5.240;2023-05-11T13:38:07;101433.0;;;16.59;76.2
50652;BME280;66928;52.086;5.240;2023-05-11T13:39:43;101430.0;;;16.48;76.73
50652;BME280;66928;52.086;5.240;2023-05-11T13:41:19;101432.0;;;16.77;76.09
50652;BME280;66928;52.086;5.240;2023-05-11T13:46:08;101433.0;;;16.71;72.49
50652;BME280;66928;52.086;5.240;2023-05-11T13:47:44;101433.0;;;16.72;71.92
50652;BME280;66928;52.086;5.240;2023-05-11T13:49:20;101430.0;;;16.81;72.52
50652;BME280;66928;52.086;5.240;2023-05-11T13:52:32;101431.0;;;16.88;72.66
50652;BME280;66928;52.086;5.240;2023-05-11T13:54:09;101426.0;;;17.09;72.09
50652;BME280;66928;52.086;5.240;2023-05-11T13:55:46;101430.0;;;17.2;72.27
50652;BME280;66928;52.086;5.240;2023-05-11T13:58:58;101434.0;;;17.34;71.83
50652;BME280;66928;52.086;5.240;2023-05-11T14:00:34;101433.0;;;17.41;71.67
50652;BME280;66928;52.086;5.240;2023-05-11T14:02:10;101432.0;;;17.27;72.61
50652;BME280;66928;52.086;5.240;2023-05-11T14:05:31;101432.0;;;17.41;72.34
50652;BME280;66928;52.086;5.240;2023-05-11T14:07:07;101431.0;;;17.5;72.86
50652;BME280;66928;52.086;5.240;2023-05-11T14:08:43;101425.0;;;17.59;73.48
50652;BME280;66928;52.086;5.240;2023-05-11T14:10:19;101427.0;;;17.68;73.64
50652;BME280;66928;52.086;5.240;2023-05-11T14:13:31;101427.0;;;17.81;73.27
50652;BME280;66928;52.086;5.240;2023-05-11T14:15:08;101430.0;;;17.97;73.03
50652;BME280;66928;52.086;5.240;2023-05-11T14:16:45;101435.0;;;17.95;73.36
50652;BME280;66928;52.086;5.240;2023-05-11T14:19:57;101435.0;;;17.63;75.55
50652;BME280;66928;52.086;5.240;2023-05-11T14:21:33;101434.0;;;17.81;75.28
50652;BME280;66928;52.086;5.240;2023-05-11T14:23:09;101431.0;;;17.8;75.8
50652;BME280;66928;52.086;5.240;2023-05-11T14:26:21;101425.0;;;18.02;75.12
50652;BME280;66928;52.086;5.240;2023-05-11T14:27:58;101425.0;;;17.98;75.11
50652;BME280;66928;52.086;5.240;2023-05-11T14:29:34;101432.0;;;17.97;75.83
50652;BME280;66928;52.086;5.240;2023-05-11T14:31:10;101430.0;;;17.86;75.38
50652;BME280;66928;52.086;5.240;2023-05-11T14:34:23;101430.0;;;17.93;75.03
50652;BME280;66928;52.086;5.240;2023-05-11T14:35:59;101425.0;;;18.07;74.38
50652;BME280;66928;52.086;5.240;2023-05-11T14:37:36;101425.0;;;18.12;75.77
50652;BME280;66928;52.086;5.240;2023-05-11T14:40:48;101432.0;;;17.91;76.25
50652;BME280;66928;52.086;5.240;2023-05-11T14:42:24;101427.0;;;17.68;76.36
50652;BME280;66928;52.086;5.240;2023-05-11T14:44:00;101430.0;;;17.86;74.45
50652;BME280;66928;52.086;5.240;2023-05-11T14:47:13;101434.0;;;17.87;75.61
50652;BME280;66928;52.086;5.240;2023-05-11T14:48:49;101435.0;;;18.02;74.41
50652;BME280;66928;52.086;5.240;2023-05-11T14:50:26;101427.0;;;18.02;74.17
50652;BME280;66928;52.086;5.240;2023-05-11T14:53:39;101427.0;;;18.06;74.5
50652;BME280;66928;52.086;5.240;2023-05-11T14:55:15;101427.0;;;18.02;74.8
50652;BME280;66928;52.086;5.240;2023-05-11T14:56:51;101426.0;;;18.02;76.03
50652;BME280;66928;52.086;5.240;2023-05-11T14:58:28;101431.0;;;17.52;78.0
50652;BME280;66928;52.086;5.240;2023-05-11T15:01:42;101433.0;;;17.41;78.48
50652;BME280;66928;52.086;5.240;2023-05-11T15:03:18;101431.0;;;17.39;78.13
50652;BME280;66928;52.086;5.240;2023-05-11T15:04:54;101427.0;;;17.41;79.19
50652;BME280;66928;52.086;5.240;2023-05-11T15:08:07;101431.0;;;17.22;79.8
50652;BME280;66928;52.086;5.240;2023-05-11T15:09:43;101431.0;;;17.27;79.25
50652;BME280;66928;52.086;5.240;2023-05-11T15:11:19;101432.0;;;17.36;78.83
50652;BME280;66928;52.086;5.240;2023-05-11T15:14:31;101434.0;;;17.47;77.8
50652;BME280;66928;52.086;5.240;2023-05-11T15:16:07;101431.0;;;17.43;78.23
50652;BME280;66928;52.086;5.240;2023-05-11T15:17:43;101430.0;;;17.59;78.23
50652;BME280;66928;52.086;5.240;2023-05-11T15:19:20;101430.0;;;17.68;77.72
50652;BME280;66928;52.086;5.240;2023-05-11T15:22:32;101427.0;;;17.68;77.94
50652;BME280;66928;52.086;5.240;2023-05-11T15:24:08;101427.0;;;17.54;77.72
50652;BME280;66928;52.086;5.240;2023-05-11T15:25:44;101431.0;;;17.75;76.36
50652;BME280;66928;52.086;5.240;2023-05-11T15:28:56;101430.0;;;17.68;76.69
50652;BME280;66928;52.086;5.240;2023-05-11T15:30:33;101433.0;;;17.86;76.64
50652;BME280;66928;52.086;5.240;2023-05-11T15:32:11;101434.0;;;17.95;75.36
50652;BME280;66928;52.086;5.240;2023-05-11T15:35:24;101436.0;;;17.91;76.22
50652;BME280;66928;52.086;5.240;2023-05-11T15:37:00;101436.0;;;17.93;75.42
50652;BME280;66928;52.086;5.240;2023-05-11T15:38:36;101434.0;;;18.02;75.11
50652;BME280;66928;52.086;5.240;2023-05-11T15:40:13;101436.0;;;17.96;75.16
50652;BME280;66928;52.086;5.240;2023-05-11T15:43:25;101436.0;;;18.0;74.52
50652;BME280;66928;52.086;5.240;2023-05-11T15:45:01;101438.0;;;17.77;75.19
50652;BME280;66928;52.086;5.240;2023-05-11T15:46:37;101441.0;;;17.86;75.25
50652;BME280;66928;52.086;5.240;2023-05-11T15:49:50;101443.0;;;17.71;73.63
50652;BME280;66928;52.086;5.240;2023-05-11T15:51:26;101450.0;;;17.52;72.91
50652;BME280;66928;52.086;5.240;2023-05-11T15:53:02;101452.0;;;17.54;73.13
50652;BME280;66928;52.086;5.240;2023-05-11T15:56:14;101451.0;;;17.68;73.2
50652;BME280;66928;52.086;5.240;2023-05-11T15:57:50;101458.0;;;17.59;73.23
50652;BME280;66928;52.086;5.240;2023-05-11T15:59:26;101455.0;;;17.48;74.44
50652;BME280;66928;52.086;5.240;2023-05-11T16:02:39;101453.0;;;17.31;75.02
50652;BME280;66928;52.086;5.240;2023-05-11T16:04:15;101453.0;;;17.39;74.92
50652;BME280;66928;52.086;5.240;2023-05-11T16:05:51;101453.0;;;17.04;76.16
50652;BME280;66928;52.086;5.240;2023-05-11T16:07:27;101452.0;;;17.02;77.24
50652;BME280;66928;52.086;5.240;2023-05-11T16:10:40;101455.0;;;17.3;75.83
50652;BME280;66928;52.086;5.240;2023-05-11T16:12:16;101447.0;;;17.34;75.55
50652;BME280;66928;52.086;5.240;2023-05-11T16:13:52;101449.0;;;17.16;76.24
50652;BME280;66928;52.086;5.240;2023-05-11T16:17:04;101453.0;;;16.88;77.73
50652;BME280;66928;52.086;5.240;2023-05-11T16:18:41;101451.0;;;16.9;78.99
50652;BME280;66928;52.086;5.240;2023-05-11T16:20:18;101440.0;;;16.75;80.91
50652;BME280;66928;52.086;5.240;2023-05-11T16:23:30;101437.0;;;16.8;81.19
50652;BME280;66928;52.086;5.240;2023-05-11T16:25:06;101440.0;;;16.7;81.53
50652;BME280;66928;52.086;5.240;2023-05-11T16:26:42;101438.0;;;17.04;79.48
50652;BME280;66928;52.086;5.240;2023-05-11T16:29:54;101439.0;;;17.09;79.27
50652;BME280;66928;52.086;5.240;2023-05-11T16:31:31;101436.0;;;16.79;80.0
50652;BME280;66928;52.086;5.240;2023-05-11T16:33:07;101430.0;;;16.93;79.62
50652;BME280;66928;52.086;5.240;2023-05-11T16:34:43;101430.0;;;17.29;78.19
50652;BME280;66928;52.086;5.240;2023-05-11T16:37:57;101426.0;;;17.39;78.22
50652;BME280;66928;52.086;5.240;2023-05-11T16:39:33;101425.0;;;17.39;77.94
50652;BME280;66928;52.086;5.240;2023-05-11T16:41:10;101430.0;;;17.29;77.7
50652;BME280;66928;52.086;5.240;2023-05-11T16:44:22;101426.0;;;17.21;77.37
50652;BME280;66928;52.086;5.240;2023-05-11T16:45:58;101421.0;;;17.41;76.91
50652;BME280;66928;52.086;5.240;2023-05-11T16:47:34;101423.0;;;17.45;76.5
50652;BME280;66928;52.086;5.240;2023-05-11T16:50:47;101426.0;;;16.98;77.89
50652;BME280;66928;52.086;5.240;2023-05-11T16:52:23;101426.0;;;17.09;78.37
50652;BME280;66928;52.086;5.240;2023-05-11T16:53:59;101432.0;;;17.37;77.39
50652;BME280;66928;52.086;5.240;2023-05-11T16:55:35;101436.0;;;17.45;77.36
50652;BME280;66928;52.086;5.240;2023-05-11T16:58:47;101439.0;;;17.5;76.95
50652;BME280;66928;52.086;5.240;2023-05-11T17:00:24;101440.0;;;17.55;77.14
50652;BME280;66928;52.086;5.240;2023-05-11T17:02:00;101440.0;;;17.48;77.23